Miyamaru No.3 — JPQN — position and weather

sailwx.info

Track history (hours):
 
Tides and Currents Weather Stations Pressure Air Temp Water Temp Dewpoint Dewpoint Depression Visibility Wind Speed Wind Dir Waves Ship Positions

Miyamaru No.3

Last reported at 2018-Mar-31 15:25 UTC. Time now 2018-Jun-24 22:28 UTC.
Position N 34°19' E 133°36'.
Warning: this ship's position is months out of date.

Length 105 m; draft 5 m.

Type: Tanker. MMSI: 431036000.

Date/timePositionNaut miles runAvg speedWind from/ knotsBaromVisibWave heightAir tempDewpointWater temp
2018-Mar-31 15:25N 34°19' E 133°36'1310.6
2018-Mar-31 14:13N 34°23' E 133°51'211.3
2018-Mar-31 14:00N 34°24' E 133°53'612.1
2018-Mar-31 13:29N 34°26' E 134°01'711.9
2018-Mar-31 12:54N 34°26' E 134°09'512.7
2018-Mar-31 12:30N 34°24' E 134°15'612.4
2018-Mar-31 12:00N 34°25' E 134°22'612.2
2018-Mar-31 11:30N 34°28' E 134°29'612.0
2018-Mar-31 11:00N 34°30' E 134°36'612.4
2018-Mar-31 10:31N 34°32' E 134°43'713.2
2018-Mar-31 10:00N 34°34' E 134°50'713.6
2018-Mar-31 09:30N 34°37' E 134°58'612.6
2018-Mar-31 09:00N 34°36' E 135°05'611.4
2018-Mar-31 08:30N 34°36' E 135°12'611.4
2018-Mar-31 08:00N 34°36' E 135°19'510.0
2018-Mar-31 07:30N 34°36' E 135°25'1 2.2
2018-Mar-31 06:59N 34°35' E 135°26'0 0.0
2018-Mar-31 06:29N 34°35' E 135°26'0 0.0
2018-Mar-31 05:59N 34°35' E 135°26'0 0.0
2018-Mar-31 05:29N 34°35' E 135°26'0 0.0
2018-Mar-31 04:59N 34°35' E 135°26'0 0.0
2018-Mar-31 04:29N 34°35' E 135°26'0 0.0
2018-Mar-31 03:59N 34°35' E 135°26'0 0.0
2018-Mar-31 03:29N 34°35' E 135°26'0 0.0
2018-Mar-31 02:59N 34°35' E 135°26'0 0.0
2018-Mar-31 02:26N 34°35' E 135°26'0 0.0
2018-Mar-31 01:59N 34°35' E 135°26'0 0.0
2018-Mar-31 01:29N 34°35' E 135°26'0 0.0
2018-Mar-31 00:59N 34°35' E 135°26'0 0.0
2018-Mar-31 00:29N 34°35' E 135°26'0 0.0
2018-Mar-31 00:00N 34°35' E 135°26'2 4.2
2018-Mar-30 23:31N 34°36' E 135°24'3 6.6
2018-Mar-30 23:00N 34°36' E 135°20'1 2.6
2018-Mar-30 22:30N 34°35' E 135°19'1 1.1
2018-Mar-30 22:00N 34°35' E 135°19'3 6.4
2018-Mar-30 21:30N 34°32' E 135°16'5 9.5
2018-Mar-30 21:00N 34°29' E 135°12'510.6
2018-Mar-30 20:30N 34°25' E 135°07'511.0
2018-Mar-30 20:00N 34°21' E 135°03'510.7
2018-Mar-30 19:30N 34°17' E 134°59'5 9.8
2018-Mar-30 19:00N 34°12' E 134°59'510.3
2018-Mar-30 18:30N 34°07' E 134°59'510.8
2018-Mar-30 18:00N 34°01' E 134°60'510.8
2018-Mar-30 17:30N 33°56' E 135°00'610.5
2018-Mar-30 16:54N 33°50' E 135°03'145 9.7
2018-Mar-30 01:58N 34°26' E 137°53'611.7
2018-Mar-30 01:29N 34°28' E 137°59'1211.3
2018-Mar-30 00:26N 34°31' E 138°13'911.2
2018-Mar-29 23:39N 34°31' E 138°24'411.1
2018-Mar-29 23:17N 34°32' E 138°29'1810.6
2018-Mar-29 21:37N 34°33' E 138°50'110.6
2018-Mar-29 21:30N 34°33' E 138°52'610.1
2018-Mar-29 20:56N 34°34' E 138°59'510.8
2018-Mar-29 20:27N 34°38' E 139°03'510.2
2018-Mar-29 20:00N 34°41' E 139°07'710.1
2018-Mar-29 19:16N 34°46' E 139°13'410.1
2018-Mar-29 18:54N 34°49' E 139°16'4 9.7
2018-Mar-29 18:26N 34°52' E 139°20'4 9.3
2018-Mar-29 17:57N 34°55' E 139°24'4 9.6
2018-Mar-29 17:30N 34°57' E 139°29'510.4
2018-Mar-29 17:00N 35°01' E 139°34'611.2
2018-Mar-29 16:29N 35°04' E 139°39'611.9
2018-Mar-29 16:00N 35°09' E 139°44'611.0
2018-Mar-29 15:30N 35°14' E 139°46'510.2
2018-Mar-29 15:00N 35°18' E 139°44'510.4
2018-Mar-29 14:30N 35°23' E 139°42'510.9
2018-Mar-29 14:00N 35°27' E 139°47'611.1
2018-Mar-29 13:30N 35°31' E 139°53'510.6
2018-Mar-29 12:59N 35°32' E 139°59'3 6.6
2018-Mar-29 12:30N 35°32' E 140°03'0 0.2
2018-Mar-29 11:59N 35°32' E 140°03'0 0.0
2018-Mar-29 06:24N 35°32' E 140°03'1 2.1
2018-Mar-29 06:00N 35°32' E 140°03'1 2.8
2018-Mar-29 05:30N 35°32' E 140°01'5 9.7
2018-Mar-29 05:00N 35°31' E 139°55'611.9
2018-Mar-29 04:30N 35°27' E 139°49'612.3
2018-Mar-29 04:01N 35°22' E 139°45'611.3
2018-Mar-29 03:30N 35°16' E 139°46'611.9
2018-Mar-29 03:00N 35°10' E 139°46'611.8
2018-Mar-29 02:31N 35°05' E 139°44'612.2
2018-Mar-29 02:01N 35°01' E 139°38'612.7
2018-Mar-29 01:31N 34°58' E 139°31'813.7
2018-Mar-29 00:57N 34°53' E 139°24'715.0
2018-Mar-29 00:31N 34°48' E 139°19'1014.5
2018-Mar-28 23:50N 34°41' E 139°10'514.9
2018-Mar-28 23:31N 34°38' E 139°05'714.5
2018-Mar-28 23:00N 34°33' E 138°58'713.9
2018-Mar-28 22:30N 34°33' E 138°50'812.7
2018-Mar-28 21:54N 34°33' E 138°41'512.5
2018-Mar-28 21:29N 34°33' E 138°34'712.7
2018-Mar-28 20:55N 34°32' E 138°26'512.2
2018-Mar-28 20:28N 34°32' E 138°19'612.1
2018-Mar-28 19:56N 34°33' E 138°11'712.0
2018-Mar-28 19:20N 34°32' E 138°03'512.0
2018-Mar-28 18:56N 34°32' E 137°57'611.7
2018-Mar-28 18:28N 34°32' E 137°50'711.7
2018-Mar-28 17:51N 34°32' E 137°41'1111.6
2018-Mar-28 16:53N 34°32' E 137°28'411.8
2018-Mar-28 16:30N 34°32' E 137°22'612.0
2018-Mar-28 16:00N 34°32' E 137°15'711.9
2018-Mar-28 15:24N 34°32' E 137°06'411.0
2018-Mar-28 15:00N 34°33' E 137°01'611.5
2018-Mar-28 14:30N 34°37' E 136°56'612.1
2018-Mar-28 14:00N 34°40' E 136°50'612.0
2018-Mar-28 13:30N 34°46' E 136°47'612.0
2018-Mar-28 13:00N 34°51' E 136°44'611.8
2018-Mar-28 12:30N 34°56' E 136°41'2 4.8
2018-Mar-28 12:00N 34°58' E 136°39'0 0.0
2018-Mar-28 11:30N 34°58' E 136°39'0 0.0
2018-Mar-28 10:59N 34°58' E 136°39'0 0.0
2018-Mar-28 10:29N 34°58' E 136°39'0 0.0
2018-Mar-28 09:59N 34°58' E 136°39'0 0.0
2018-Mar-28 09:29N 34°58' E 136°39'0 0.0
2018-Mar-28 08:59N 34°58' E 136°39'0 0.0
2018-Mar-28 08:26N 34°58' E 136°39'0 0.0
2018-Mar-28 07:59N 34°58' E 136°39'0 0.0
2018-Mar-28 07:29N 34°58' E 136°39'0 0.0
2018-Mar-28 06:59N 34°58' E 136°39'0 0.1
2018-Mar-28 06:20N 34°58' E 136°39'1 2.3
2018-Mar-28 06:00N 34°58' E 136°39'3 6.6
2018-Mar-28 05:30N 34°55' E 136°41'510.9
2018-Mar-28 05:01N 34°50' E 136°45'611.2
2018-Mar-28 04:30N 34°45' E 136°48'611.2
2018-Mar-28 03:59N 34°40' E 136°52'3810.5
2018-Mar-28 00:22N 34°32' E 137°37'811.3
2018-Mar-27 23:42N 34°32' E 137°46'2211.1
2018-Mar-27 21:45N 34°32' E 138°12'510.9
2018-Mar-27 21:18N 34°32' E 138°18'710.8
2018-Mar-27 20:42N 34°32' E 138°26'310.7
2018-Mar-27 20:23N 34°33' E 138°30'1110.6
2018-Mar-27 19:20N 34°33' E 138°44'510.7
2018-Mar-27 18:51N 34°33' E 138°50'4 9.9
2018-Mar-27 18:28N 34°33' E 138°55'6 9.0
2018-Mar-27 17:48N 34°36' E 139°01'410.5
2018-Mar-27 17:25N 34°39' E 139°04'11 9.9
2018-Mar-27 16:21N 34°46' E 139°13'13 8.9
2018-Mar-27 14:56N 34°55' E 139°25'4 8.3
2018-Mar-27 14:29N 34°57' E 139°28'4 8.6
2018-Mar-27 14:00N 35°00' E 139°32'5 9.7
2018-Mar-27 13:30N 35°03' E 139°36'510.2
2018-Mar-27 13:00N 35°06' E 139°41'510.4
2018-Mar-27 12:30N 35°10' E 139°45'510.5
2018-Mar-27 12:00N 35°16' E 139°46'611.1
2018-Mar-27 11:30N 35°20' E 139°43'510.3
2018-Mar-27 11:01N 35°25' E 139°44'611.1
2018-Mar-27 10:30N 35°29' E 139°49'810.8
2018-Mar-27 09:47N 35°32' E 139°58'310.6
2018-Mar-27 09:31N 35°32' E 140°02'1 2.6
2018-Mar-27 09:00N 35°32' E 140°03'0 0.0
2018-Mar-27 03:52N 35°32' E 140°03'1 1.8
2018-Mar-27 03:30N 35°32' E 140°03'1 1.8
2018-Mar-27 03:00N 35°33' E 140°02'0 0.1
2018-Mar-27 02:28N 35°33' E 140°02'0 0.0
2018-Mar-27 01:54N 35°33' E 140°02'0 0.0
2018-Mar-27 01:30N 35°33' E 140°02'0 0.0
2018-Mar-27 01:00N 35°33' E 140°02'0 0.0
2018-Mar-27 00:30N 35°33' E 140°02'1 1.5
2018-Mar-27 00:00N 35°32' E 140°01'510.2
2018-Mar-26 23:30N 35°30' E 139°56'511.0
2018-Mar-26 23:01N 35°27' E 139°50'611.2
2018-Mar-26 22:30N 35°23' E 139°46'510.6
2018-Mar-26 22:01N 35°17' E 139°45'511.0
2018-Mar-26 21:31N 35°12' E 139°47'611.3
2018-Mar-26 21:01N 35°06' E 139°45'611.2
2018-Mar-26 20:30N 35°03' E 139°40'611.9
2018-Mar-26 19:58N 34°59' E 139°34'613.4
2018-Mar-26 19:30N 34°55' E 139°28'713.8
2018-Mar-26 19:01N 34°50' E 139°21'713.5
2018-Mar-26 18:30N 34°46' E 139°15'713.4
2018-Mar-26 18:00N 34°42' E 139°09'713.2
2018-Mar-26 17:29N 34°37' E 139°03'613.1
2018-Mar-26 17:01N 34°33' E 138°57'913.4
2018-Mar-26 16:23N 34°33' E 138°47'512.8
2018-Mar-26 15:57N 34°33' E 138°40'612.8
2018-Mar-26 15:29N 34°33' E 138°33'611.9
2018-Mar-26 14:59N 34°32' E 138°26'611.8
2018-Mar-26 14:30N 34°32' E 138°19'2112.1
2018-Mar-26 12:46N 34°32' E 137°53'2512.2
2018-Mar-26 10:45N 34°32' E 137°24'512.7
2018-Mar-26 10:20N 34°32' E 137°17'412.4
2018-Mar-26 10:00N 34°32' E 137°12'812.6
2018-Mar-26 09:20N 34°32' E 137°02'412.5
2018-Mar-26 09:00N 34°35' E 136°58'612.2
2018-Mar-26 08:30N 34°38' E 136°52'611.7
2018-Mar-26 08:00N 34°43' E 136°48'612.0
2018-Mar-26 07:31N 34°48' E 136°45'611.6
2018-Mar-26 07:01N 34°54' E 136°42'5 9.2
2018-Mar-26 06:30N 34°58' E 136°39'0 0.4
2018-Mar-26 05:56N 34°58' E 136°39'0 0.0
2018-Mar-26 05:28N 34°58' E 136°39'0 0.0
2018-Mar-26 04:46N 34°58' E 136°39'0 0.0
2018-Mar-26 04:22N 34°58' E 136°39'0 0.0
2018-Mar-26 03:58N 34°58' E 136°39'0 0.0
2018-Mar-26 03:16N 34°58' E 136°39'0 0.0
2018-Mar-26 02:58N 34°58' E 136°39'0 0.0
2018-Mar-26 02:28N 34°58' E 136°39'0 0.0
2018-Mar-26 01:58N 34°58' E 136°39'0 0.0
2018-Mar-26 01:22N 34°58' E 136°39'0 0.0
2018-Mar-26 00:52N 34°58' E 136°39'0 0.0
2018-Mar-26 00:28N 34°58' E 136°39'0 0.0
2018-Mar-25 23:58N 34°58' E 136°39'0 0.1
2018-Mar-25 23:26N 34°58' E 136°39'1 1.5
2018-Mar-25 23:00N 34°57' E 136°39'1 2.5
2018-Mar-25 22:30N 34°57' E 136°41'0 0.1
2018-Mar-25 22:00N 34°57' E 136°41'0 0.1
2018-Mar-25 21:30N 34°57' E 136°41'0 0.0
2018-Mar-25 21:00N 34°57' E 136°41'0 0.0
2018-Mar-25 20:27N 34°57' E 136°41'0 0.0
2018-Mar-25 20:00N 34°57' E 136°41'0 0.0
2018-Mar-25 19:27N 34°57' E 136°41'0 0.0
2018-Mar-25 19:00N 34°57' E 136°41'0 0.0
2018-Mar-25 18:30N 34°57' E 136°41'0 0.0
2018-Mar-25 18:00N 34°57' E 136°41'2 3.7
2018-Mar-25 17:30N 34°57' E 136°39'0 0.6
2018-Mar-25 16:59N 34°56' E 136°38'0 0.0
2018-Mar-25 16:29N 34°56' E 136°38'0 0.0
2018-Mar-25 15:47N 34°56' E 136°38'0 0.0
2018-Mar-25 15:29N 34°56' E 136°38'0 0.0
2018-Mar-25 14:59N 34°56' E 136°38'0 0.0
2018-Mar-25 14:29N 34°56' E 136°38'0 0.0
2018-Mar-25 13:59N 34°56' E 136°38'0 0.0
2018-Mar-25 13:29N 34°56' E 136°38'0 0.0
2018-Mar-25 12:59N 34°56' E 136°38'0 0.0
2018-Mar-25 12:29N 34°56' E 136°38'0 0.0
2018-Mar-25 11:59N 34°56' E 136°38'0 0.0
2018-Mar-25 11:29N 34°56' E 136°38'0 0.0
2018-Mar-25 10:59N 34°56' E 136°38'0 0.0
2018-Mar-25 10:29N 34°56' E 136°38'0 0.3
2018-Mar-25 10:00N 34°57' E 136°39'2 3.9
2018-Mar-25 09:30N 34°57' E 136°41'0 0.2
2018-Mar-25 08:59N 34°57' E 136°41'0 0.0
2018-Mar-25 08:29N 34°57' E 136°41'0 0.0
2018-Mar-25 07:59N 34°57' E 136°41'0 0.0
2018-Mar-25 07:29N 34°57' E 136°41'0 0.0
2018-Mar-25 06:59N 34°57' E 136°41'0 0.0
2018-Mar-25 06:29N 34°57' E 136°41'0 0.0
2018-Mar-25 05:59N 34°57' E 136°41'0 0.0
2018-Mar-25 05:29N 34°57' E 136°41'0 0.0
2018-Mar-25 04:59N 34°57' E 136°41'0 0.0
2018-Mar-25 04:29N 34°57' E 136°41'0 0.0
2018-Mar-25 03:59N 34°57' E 136°41'0 0.0
2018-Mar-25 03:29N 34°57' E 136°41'0 0.0
2018-Mar-25 02:59N 34°57' E 136°41'0 0.0
2018-Mar-25 02:29N 34°57' E 136°41'0 0.1
2018-Mar-25 01:59N 34°57' E 136°41'1 1.6
2018-Mar-25 01:30N 34°56' E 136°41'510.6
2018-Mar-25 01:00N 34°51' E 136°43'611.6
2018-Mar-25 00:28N 34°46' E 136°46'611.7
2018-Mar-25 00:00N 34°41' E 136°50'57 9.0
2018-Mar-24 17:38N 33°48' E 136°25'63 9.4
2018-Mar-24 10:57N 33°43' E 135°10'612.3
2018-Mar-24 10:28N 33°47' E 135°06'612.1
2018-Mar-24 10:00N 33°51' E 135°01'611.8
2018-Mar-24 09:30N 33°57' E 134°60'612.2
2018-Mar-24 09:01N 34°03' E 134°59'612.5
2018-Mar-24 08:30N 34°10' E 134°59'612.9
2018-Mar-24 08:00N 34°16' E 134°59'612.5
2018-Mar-24 07:30N 34°22' E 135°01'612.3
2018-Mar-24 07:00N 34°26' E 135°06'612.0
2018-Mar-24 06:30N 34°30' E 135°12'611.8
2018-Mar-24 06:00N 34°33' E 135°18'611.5
2018-Mar-24 05:31N 34°36' E 135°24'3 5.3
2018-Mar-24 05:01N 34°35' E 135°26'0 0.0
2018-Mar-24 04:28N 34°35' E 135°26'0 0.0
2018-Mar-24 03:58N 34°35' E 135°26'0 0.0
2018-Mar-24 03:28N 34°35' E 135°26'0 0.0
2018-Mar-24 03:01N 34°35' E 135°26'0 0.0
2018-Mar-24 02:28N 34°35' E 135°26'0 0.0
2018-Mar-24 01:58N 34°35' E 135°26'0 0.0
2018-Mar-24 01:31N 34°35' E 135°26'0 0.0
2018-Mar-24 00:58N 34°35' E 135°26'0 0.0
2018-Mar-24 00:28N 34°35' E 135°26'0 0.0
2018-Mar-23 23:58N 34°35' E 135°26'0 0.0
2018-Mar-23 23:31N 34°35' E 135°26'0 0.6
2018-Mar-23 23:00N 34°35' E 135°25'1 2.9
2018-Mar-23 22:30N 34°36' E 135°25'2 3.6
2018-Mar-23 22:00N 34°36' E 135°22'0 0.0
2018-Mar-23 21:29N 34°36' E 135°22'0 0.1
2018-Mar-23 20:59N 34°36' E 135°22'0 0.0
2018-Mar-23 20:29N 34°36' E 135°22'0 0.1
2018-Mar-23 20:00N 34°36' E 135°22'4 7.4
2018-Mar-23 19:31N 34°34' E 135°19'510.6
2018-Mar-23 19:01N 34°30' E 135°14'611.2
2018-Mar-23 18:31N 34°26' E 135°09'611.0
2018-Mar-23 18:01N 34°22' E 135°04'611.0
2018-Mar-23 17:30N 34°18' E 134°60'611.6
2018-Mar-23 17:01N 34°12' E 134°59'611.3
2018-Mar-23 16:30N 34°07' E 134°59'611.5
2018-Mar-23 16:01N 34°01' E 134°60'611.3
2018-Mar-23 15:30N 33°55' E 135°00'510.9
2018-Mar-23 15:01N 33°50' E 135°03'159 9.3
2018-Mar-22 21:49N 34°31' E 138°09'4 8.6
2018-Mar-22 21:24N 34°31' E 138°13'4 8.1
2018-Mar-22 20:57N 34°31' E 138°18'6 8.1
2018-Mar-22 20:14N 34°31' E 138°25'3 8.2
2018-Mar-22 19:56N 34°31' E 138°28'4 8.3
2018-Mar-22 19:27N 34°32' E 138°32'4 8.1
2018-Mar-22 18:55N 34°32' E 138°38'9 8.0
2018-Mar-22 17:44N 34°33' E 138°49'2 7.6
2018-Mar-22 17:30N 34°33' E 138°51'3 7.1
2018-Mar-22 17:00N 34°33' E 138°56'4 6.5
2018-Mar-22 16:27N 34°34' E 138°60'4 7.9
2018-Mar-22 15:55N 34°37' E 139°03'4 7.9
2018-Mar-22 15:28N 34°40' E 139°06'7 8.2
2018-Mar-22 14:39N 34°45' E 139°12'2 8.3
2018-Mar-22 14:25N 34°46' E 139°13'8 8.9
2018-Mar-22 13:28N 34°52' E 139°21'5 8.6
2018-Mar-22 12:50N 34°56' E 139°26'3 8.2
2018-Mar-22 12:30N 34°57' E 139°28'4 8.7
2018-Mar-22 12:00N 35°00' E 139°32'4 9.0
2018-Mar-22 11:30N 35°03' E 139°37'5 9.5
2018-Mar-22 10:59N 35°06' E 139°41'510.0
2018-Mar-22 10:30N 35°10' E 139°45'510.1
2018-Mar-22 10:00N 35°15' E 139°46'510.7
2018-Mar-22 09:30N 35°19' E 139°43'510.2
2018-Mar-22 09:00N 35°24' E 139°43'511.0
2018-Mar-22 08:30N 35°28' E 139°48'611.2
2018-Mar-22 08:01N 35°31' E 139°54'611.2
2018-Mar-22 07:30N 35°32' E 140°01'2 4.3
2018-Mar-22 07:00N 35°32' E 140°03'0 0.0
2018-Mar-22 01:39N 35°32' E 140°03'0 0.4
2018-Mar-22 01:30N 35°32' E 140°03'1 2.3
2018-Mar-22 00:59N 35°33' E 140°02'0 0.0
2018-Mar-22 00:26N 35°33' E 140°02'0 0.0
2018-Mar-21 23:59N 35°33' E 140°02'0 0.0
2018-Mar-21 23:26N 35°33' E 140°02'0 0.0
2018-Mar-21 22:56N 35°33' E 140°02'0 0.0
2018-Mar-21 22:11N 35°33' E 140°02'0 0.0
2018-Mar-21 21:56N 35°33' E 140°02'0 0.0
2018-Mar-21 21:26N 35°33' E 140°02'0 0.0
2018-Mar-21 20:59N 35°33' E 140°02'0 0.0
2018-Mar-21 20:26N 35°33' E 140°02'0 0.0
2018-Mar-21 19:59N 35°33' E 140°02'0 0.0
2018-Mar-21 19:26N 35°33' E 140°02'0 0.0
2018-Mar-21 18:59N 35°33' E 140°02'0 0.1
2018-Mar-21 18:29N 35°33' E 140°02'0 0.0
2018-Mar-21 17:56N 35°33' E 140°02'0 0.0
2018-Mar-21 17:26N 35°33' E 140°02'0 0.0
2018-Mar-21 16:56N 35°33' E 140°02'0 0.0
2018-Mar-21 16:26N 35°33' E 140°02'0 0.0
2018-Mar-21 15:56N 35°33' E 140°02'0 0.0
2018-Mar-21 15:26N 35°33' E 140°02'  
Track history (hours):
 
Tides and Currents Weather Stations Pressure Air Temp Water Temp Dewpoint Dewpoint Depression Visibility Wind Speed Wind Dir Waves Ship Positions

Miyamaru No.3

Last reported at 2018-Mar-31 15:25 UTC. Time now 2018-Jun-24 22:28 UTC.
Position N 34°19' E 133°36'.
Warning: this ship's position is months out of date.

Length 105 m; draft 5 m.

Type: Tanker. MMSI: 431036000.

Date/timePositionNaut miles runAvg speedWind from/ knotsBaromVisibWave heightAir tempDewpointWater temp
2018-Mar-31 15:25N 34°19' E 133°36'1310.6
2018-Mar-31 14:13N 34°23' E 133°51'211.3
2018-Mar-31 14:00N 34°24' E 133°53'612.1
2018-Mar-31 13:29N 34°26' E 134°01'711.9
2018-Mar-31 12:54N 34°26' E 134°09'512.7
2018-Mar-31 12:30N 34°24' E 134°15'612.4
2018-Mar-31 12:00N 34°25' E 134°22'612.2
2018-Mar-31 11:30N 34°28' E 134°29'612.0
2018-Mar-31 11:00N 34°30' E 134°36'612.4
2018-Mar-31 10:31N 34°32' E 134°43'713.2
2018-Mar-31 10:00N 34°34' E 134°50'713.6
2018-Mar-31 09:30N 34°37' E 134°58'612.6
2018-Mar-31 09:00N 34°36' E 135°05'611.4
2018-Mar-31 08:30N 34°36' E 135°12'611.4
2018-Mar-31 08:00N 34°36' E 135°19'510.0
2018-Mar-31 07:30N 34°36' E 135°25'1 2.2
2018-Mar-31 06:59N 34°35' E 135°26'0 0.0
2018-Mar-31 06:29N 34°35' E 135°26'0 0.0
2018-Mar-31 05:59N 34°35' E 135°26'0 0.0
2018-Mar-31 05:29N 34°35' E 135°26'0 0.0
2018-Mar-31 04:59N 34°35' E 135°26'0 0.0
2018-Mar-31 04:29N 34°35' E 135°26'0 0.0
2018-Mar-31 03:59N 34°35' E 135°26'0 0.0
2018-Mar-31 03:29N 34°35' E 135°26'0 0.0
2018-Mar-31 02:59N 34°35' E 135°26'0 0.0
2018-Mar-31 02:26N 34°35' E 135°26'0 0.0
2018-Mar-31 01:59N 34°35' E 135°26'0 0.0
2018-Mar-31 01:29N 34°35' E 135°26'0 0.0
2018-Mar-31 00:59N 34°35' E 135°26'0 0.0
2018-Mar-31 00:29N 34°35' E 135°26'0 0.0
2018-Mar-31 00:00N 34°35' E 135°26'2 4.2
2018-Mar-30 23:31N 34°36' E 135°24'3 6.6
2018-Mar-30 23:00N 34°36' E 135°20'1 2.6
2018-Mar-30 22:30N 34°35' E 135°19'1 1.1
2018-Mar-30 22:00N 34°35' E 135°19'3 6.4
2018-Mar-30 21:30N 34°32' E 135°16'5 9.5
2018-Mar-30 21:00N 34°29' E 135°12'510.6
2018-Mar-30 20:30N 34°25' E 135°07'511.0
2018-Mar-30 20:00N 34°21' E 135°03'510.7
2018-Mar-30 19:30N 34°17' E 134°59'5 9.8
2018-Mar-30 19:00N 34°12' E 134°59'510.3
2018-Mar-30 18:30N 34°07' E 134°59'510.8
2018-Mar-30 18:00N 34°01' E 134°60'510.8
2018-Mar-30 17:30N 33°56' E 135°00'610.5
2018-Mar-30 16:54N 33°50' E 135°03'145 9.7
2018-Mar-30 01:58N 34°26' E 137°53'611.7
2018-Mar-30 01:29N 34°28' E 137°59'1211.3
2018-Mar-30 00:26N 34°31' E 138°13'911.2
2018-Mar-29 23:39N 34°31' E 138°24'411.1
2018-Mar-29 23:17N 34°32' E 138°29'1810.6
2018-Mar-29 21:37N 34°33' E 138°50'110.6
2018-Mar-29 21:30N 34°33' E 138°52'610.1
2018-Mar-29 20:56N 34°34' E 138°59'510.8
2018-Mar-29 20:27N 34°38' E 139°03'510.2
2018-Mar-29 20:00N 34°41' E 139°07'710.1
2018-Mar-29 19:16N 34°46' E 139°13'410.1
2018-Mar-29 18:54N 34°49' E 139°16'4 9.7
2018-Mar-29 18:26N 34°52' E 139°20'4 9.3
2018-Mar-29 17:57N 34°55' E 139°24'4 9.6
2018-Mar-29 17:30N 34°57' E 139°29'510.4
2018-Mar-29 17:00N 35°01' E 139°34'611.2
2018-Mar-29 16:29N 35°04' E 139°39'611.9
2018-Mar-29 16:00N 35°09' E 139°44'611.0
2018-Mar-29 15:30N 35°14' E 139°46'510.2
2018-Mar-29 15:00N 35°18' E 139°44'510.4
2018-Mar-29 14:30N 35°23' E 139°42'510.9
2018-Mar-29 14:00N 35°27' E 139°47'611.1
2018-Mar-29 13:30N 35°31' E 139°53'510.6
2018-Mar-29 12:59N 35°32' E 139°59'3 6.6
2018-Mar-29 12:30N 35°32' E 140°03'0 0.2
2018-Mar-29 11:59N 35°32' E 140°03'0 0.0
2018-Mar-29 06:24N 35°32' E 140°03'1 2.1
2018-Mar-29 06:00N 35°32' E 140°03'1 2.8
2018-Mar-29 05:30N 35°32' E 140°01'5 9.7
2018-Mar-29 05:00N 35°31' E 139°55'611.9
2018-Mar-29 04:30N 35°27' E 139°49'612.3
2018-Mar-29 04:01N 35°22' E 139°45'611.3
2018-Mar-29 03:30N 35°16' E 139°46'611.9
2018-Mar-29 03:00N 35°10' E 139°46'611.8
2018-Mar-29 02:31N 35°05' E 139°44'612.2
2018-Mar-29 02:01N 35°01' E 139°38'612.7
2018-Mar-29 01:31N 34°58' E 139°31'813.7
2018-Mar-29 00:57N 34°53' E 139°24'715.0
2018-Mar-29 00:31N 34°48' E 139°19'1014.5
2018-Mar-28 23:50N 34°41' E 139°10'514.9
2018-Mar-28 23:31N 34°38' E 139°05'714.5
2018-Mar-28 23:00N 34°33' E 138°58'713.9
2018-Mar-28 22:30N 34°33' E 138°50'812.7
2018-Mar-28 21:54N 34°33' E 138°41'512.5
2018-Mar-28 21:29N 34°33' E 138°34'712.7
2018-Mar-28 20:55N 34°32' E 138°26'512.2
2018-Mar-28 20:28N 34°32' E 138°19'612.1
2018-Mar-28 19:56N 34°33' E 138°11'712.0
2018-Mar-28 19:20N 34°32' E 138°03'512.0
2018-Mar-28 18:56N 34°32' E 137°57'611.7
2018-Mar-28 18:28N 34°32' E 137°50'711.7
2018-Mar-28 17:51N 34°32' E 137°41'1111.6
2018-Mar-28 16:53N 34°32' E 137°28'411.8
2018-Mar-28 16:30N 34°32' E 137°22'612.0
2018-Mar-28 16:00N 34°32' E 137°15'711.9
2018-Mar-28 15:24N 34°32' E 137°06'411.0
2018-Mar-28 15:00N 34°33' E 137°01'611.5
2018-Mar-28 14:30N 34°37' E 136°56'612.1
2018-Mar-28 14:00N 34°40' E 136°50'612.0
2018-Mar-28 13:30N 34°46' E 136°47'612.0
2018-Mar-28 13:00N 34°51' E 136°44'611.8
2018-Mar-28 12:30N 34°56' E 136°41'2 4.8
2018-Mar-28 12:00N 34°58' E 136°39'0 0.0
2018-Mar-28 11:30N 34°58' E 136°39'0 0.0
2018-Mar-28 10:59N 34°58' E 136°39'0 0.0
2018-Mar-28 10:29N 34°58' E 136°39'0 0.0
2018-Mar-28 09:59N 34°58' E 136°39'0 0.0
2018-Mar-28 09:29N 34°58' E 136°39'0 0.0
2018-Mar-28 08:59N 34°58' E 136°39'0 0.0
2018-Mar-28 08:26N 34°58' E 136°39'0 0.0
2018-Mar-28 07:59N 34°58' E 136°39'0 0.0
2018-Mar-28 07:29N 34°58' E 136°39'0 0.0
2018-Mar-28 06:59N 34°58' E 136°39'0 0.1
2018-Mar-28 06:20N 34°58' E 136°39'1 2.3
2018-Mar-28 06:00N 34°58' E 136°39'3 6.6
2018-Mar-28 05:30N 34°55' E 136°41'510.9
2018-Mar-28 05:01N 34°50' E 136°45'611.2
2018-Mar-28 04:30N 34°45' E 136°48'611.2
2018-Mar-28 03:59N 34°40' E 136°52'3810.5
2018-Mar-28 00:22N 34°32' E 137°37'811.3
2018-Mar-27 23:42N 34°32' E 137°46'2211.1
2018-Mar-27 21:45N 34°32' E 138°12'510.9
2018-Mar-27 21:18N 34°32' E 138°18'710.8
2018-Mar-27 20:42N 34°32' E 138°26'310.7
2018-Mar-27 20:23N 34°33' E 138°30'1110.6
2018-Mar-27 19:20N 34°33' E 138°44'510.7
2018-Mar-27 18:51N 34°33' E 138°50'4 9.9
2018-Mar-27 18:28N 34°33' E 138°55'6 9.0
2018-Mar-27 17:48N 34°36' E 139°01'410.5
2018-Mar-27 17:25N 34°39' E 139°04'11 9.9
2018-Mar-27 16:21N 34°46' E 139°13'13 8.9
2018-Mar-27 14:56N 34°55' E 139°25'4 8.3
2018-Mar-27 14:29N 34°57' E 139°28'4 8.6
2018-Mar-27 14:00N 35°00' E 139°32'5 9.7
2018-Mar-27 13:30N 35°03' E 139°36'510.2
2018-Mar-27 13:00N 35°06' E 139°41'510.4
2018-Mar-27 12:30N 35°10' E 139°45'510.5
2018-Mar-27 12:00N 35°16' E 139°46'611.1
2018-Mar-27 11:30N 35°20' E 139°43'510.3
2018-Mar-27 11:01N 35°25' E 139°44'611.1
2018-Mar-27 10:30N 35°29' E 139°49'810.8
2018-Mar-27 09:47N 35°32' E 139°58'310.6
2018-Mar-27 09:31N 35°32' E 140°02'1 2.6
2018-Mar-27 09:00N 35°32' E 140°03'0 0.0
2018-Mar-27 03:52N 35°32' E 140°03'1 1.8
2018-Mar-27 03:30N 35°32' E 140°03'1 1.8
2018-Mar-27 03:00N 35°33' E 140°02'0 0.1
2018-Mar-27 02:28N 35°33' E 140°02'0 0.0
2018-Mar-27 01:54N 35°33' E 140°02'0 0.0
2018-Mar-27 01:30N 35°33' E 140°02'0 0.0
2018-Mar-27 01:00N 35°33' E 140°02'0 0.0
2018-Mar-27 00:30N 35°33' E 140°02'1 1.5
2018-Mar-27 00:00N 35°32' E 140°01'510.2
2018-Mar-26 23:30N 35°30' E 139°56'511.0
2018-Mar-26 23:01N 35°27' E 139°50'611.2
2018-Mar-26 22:30N 35°23' E 139°46'510.6
2018-Mar-26 22:01N 35°17' E 139°45'511.0
2018-Mar-26 21:31N 35°12' E 139°47'611.3
2018-Mar-26 21:01N 35°06' E 139°45'611.2
2018-Mar-26 20:30N 35°03' E 139°40'611.9
2018-Mar-26 19:58N 34°59' E 139°34'613.4
2018-Mar-26 19:30N 34°55' E 139°28'713.8
2018-Mar-26 19:01N 34°50' E 139°21'713.5
2018-Mar-26 18:30N 34°46' E 139°15'713.4
2018-Mar-26 18:00N 34°42' E 139°09'713.2
2018-Mar-26 17:29N 34°37' E 139°03'613.1
2018-Mar-26 17:01N 34°33' E 138°57'913.4
2018-Mar-26 16:23N 34°33' E 138°47'512.8
2018-Mar-26 15:57N 34°33' E 138°40'612.8
2018-Mar-26 15:29N 34°33' E 138°33'611.9
2018-Mar-26 14:59N 34°32' E 138°26'611.8
2018-Mar-26 14:30N 34°32' E 138°19'2112.1
2018-Mar-26 12:46N 34°32' E 137°53'2512.2
2018-Mar-26 10:45N 34°32' E 137°24'512.7
2018-Mar-26 10:20N 34°32' E 137°17'412.4
2018-Mar-26 10:00N 34°32' E 137°12'812.6
2018-Mar-26 09:20N 34°32' E 137°02'412.5
2018-Mar-26 09:00N 34°35' E 136°58'612.2
2018-Mar-26 08:30N 34°38' E 136°52'611.7
2018-Mar-26 08:00N 34°43' E 136°48'612.0
2018-Mar-26 07:31N 34°48' E 136°45'611.6
2018-Mar-26 07:01N 34°54' E 136°42'5 9.2
2018-Mar-26 06:30N 34°58' E 136°39'0 0.4
2018-Mar-26 05:56N 34°58' E 136°39'0 0.0
2018-Mar-26 05:28N 34°58' E 136°39'0 0.0
2018-Mar-26 04:46N 34°58' E 136°39'0 0.0
2018-Mar-26 04:22N 34°58' E 136°39'0 0.0
2018-Mar-26 03:58N 34°58' E 136°39'0 0.0
2018-Mar-26 03:16N 34°58' E 136°39'0 0.0
2018-Mar-26 02:58N 34°58' E 136°39'0 0.0
2018-Mar-26 02:28N 34°58' E 136°39'0 0.0
2018-Mar-26 01:58N 34°58' E 136°39'0 0.0
2018-Mar-26 01:22N 34°58' E 136°39'0 0.0
2018-Mar-26 00:52N 34°58' E 136°39'0 0.0
2018-Mar-26 00:28N 34°58' E 136°39'0 0.0
2018-Mar-25 23:58N 34°58' E 136°39'0 0.1
2018-Mar-25 23:26N 34°58' E 136°39'1 1.5
2018-Mar-25 23:00N 34°57' E 136°39'1 2.5
2018-Mar-25 22:30N 34°57' E 136°41'0 0.1
2018-Mar-25 22:00N 34°57' E 136°41'0 0.1
2018-Mar-25 21:30N 34°57' E 136°41'0 0.0
2018-Mar-25 21:00N 34°57' E 136°41'0 0.0
2018-Mar-25 20:27N 34°57' E 136°41'0 0.0
2018-Mar-25 20:00N 34°57' E 136°41'0 0.0
2018-Mar-25 19:27N 34°57' E 136°41'0 0.0
2018-Mar-25 19:00N 34°57' E 136°41'0 0.0
2018-Mar-25 18:30N 34°57' E 136°41'0 0.0
2018-Mar-25 18:00N 34°57' E 136°41'2 3.7
2018-Mar-25 17:30N 34°57' E 136°39'0 0.6
2018-Mar-25 16:59N 34°56' E 136°38'0 0.0
2018-Mar-25 16:29N 34°56' E 136°38'0 0.0
2018-Mar-25 15:47N 34°56' E 136°38'0 0.0
2018-Mar-25 15:29N 34°56' E 136°38'0 0.0
2018-Mar-25 14:59N 34°56' E 136°38'0 0.0
2018-Mar-25 14:29N 34°56' E 136°38'0 0.0
2018-Mar-25 13:59N 34°56' E 136°38'0 0.0
2018-Mar-25 13:29N 34°56' E 136°38'0 0.0
2018-Mar-25 12:59N 34°56' E 136°38'0 0.0
2018-Mar-25 12:29N 34°56' E 136°38'0 0.0
2018-Mar-25 11:59N 34°56' E 136°38'0 0.0
2018-Mar-25 11:29N 34°56' E 136°38'0 0.0
2018-Mar-25 10:59N 34°56' E 136°38'0 0.0
2018-Mar-25 10:29N 34°56' E 136°38'0 0.3
2018-Mar-25 10:00N 34°57' E 136°39'2 3.9
2018-Mar-25 09:30N 34°57' E 136°41'0 0.2
2018-Mar-25 08:59N 34°57' E 136°41'0 0.0
2018-Mar-25 08:29N 34°57' E 136°41'0 0.0
2018-Mar-25 07:59N 34°57' E 136°41'0 0.0
2018-Mar-25 07:29N 34°57' E 136°41'0 0.0
2018-Mar-25 06:59N 34°57' E 136°41'0 0.0
2018-Mar-25 06:29N 34°57' E 136°41'0 0.0
2018-Mar-25 05:59N 34°57' E 136°41'0 0.0
2018-Mar-25 05:29N 34°57' E 136°41'0 0.0
2018-Mar-25 04:59N 34°57' E 136°41'0 0.0
2018-Mar-25 04:29N 34°57' E 136°41'0 0.0
2018-Mar-25 03:59N 34°57' E 136°41'0 0.0
2018-Mar-25 03:29N 34°57' E 136°41'0 0.0
2018-Mar-25 02:59N 34°57' E 136°41'0 0.0
2018-Mar-25 02:29N 34°57' E 136°41'0 0.1
2018-Mar-25 01:59N 34°57' E 136°41'1 1.6
2018-Mar-25 01:30N 34°56' E 136°41'510.6
2018-Mar-25 01:00N 34°51' E 136°43'611.6
2018-Mar-25 00:28N 34°46' E 136°46'611.7
2018-Mar-25 00:00N 34°41' E 136°50'57 9.0
2018-Mar-24 17:38N 33°48' E 136°25'63 9.4
2018-Mar-24 10:57N 33°43' E 135°10'612.3
2018-Mar-24 10:28N 33°47' E 135°06'612.1
2018-Mar-24 10:00N 33°51' E 135°01'611.8
2018-Mar-24 09:30N 33°57' E 134°60'612.2
2018-Mar-24 09:01N 34°03' E 134°59'612.5
2018-Mar-24 08:30N 34°10' E 134°59'612.9
2018-Mar-24 08:00N 34°16' E 134°59'612.5
2018-Mar-24 07:30N 34°22' E 135°01'612.3
2018-Mar-24 07:00N 34°26' E 135°06'612.0
2018-Mar-24 06:30N 34°30' E 135°12'611.8
2018-Mar-24 06:00N 34°33' E 135°18'611.5
2018-Mar-24 05:31N 34°36' E 135°24'3 5.3
2018-Mar-24 05:01N 34°35' E 135°26'0 0.0
2018-Mar-24 04:28N 34°35' E 135°26'0 0.0
2018-Mar-24 03:58N 34°35' E 135°26'0 0.0
2018-Mar-24 03:28N 34°35' E 135°26'0 0.0
2018-Mar-24 03:01N 34°35' E 135°26'0 0.0
2018-Mar-24 02:28N 34°35' E 135°26'0 0.0
2018-Mar-24 01:58N 34°35' E 135°26'0 0.0
2018-Mar-24 01:31N 34°35' E 135°26'0 0.0
2018-Mar-24 00:58N 34°35' E 135°26'0 0.0
2018-Mar-24 00:28N 34°35' E 135°26'0 0.0
2018-Mar-23 23:58N 34°35' E 135°26'0 0.0
2018-Mar-23 23:31N 34°35' E 135°26'0 0.6
2018-Mar-23 23:00N 34°35' E 135°25'1 2.9
2018-Mar-23 22:30N 34°36' E 135°25'2 3.6
2018-Mar-23 22:00N 34°36' E 135°22'0 0.0
2018-Mar-23 21:29N 34°36' E 135°22'0 0.1
2018-Mar-23 20:59N 34°36' E 135°22'0 0.0
2018-Mar-23 20:29N 34°36' E 135°22'0 0.1
2018-Mar-23 20:00N 34°36' E 135°22'4 7.4
2018-Mar-23 19:31N 34°34' E 135°19'510.6
2018-Mar-23 19:01N 34°30' E 135°14'611.2
2018-Mar-23 18:31N 34°26' E 135°09'611.0
2018-Mar-23 18:01N 34°22' E 135°04'611.0
2018-Mar-23 17:30N 34°18' E 134°60'611.6
2018-Mar-23 17:01N 34°12' E 134°59'611.3
2018-Mar-23 16:30N 34°07' E 134°59'611.5
2018-Mar-23 16:01N 34°01' E 134°60'611.3
2018-Mar-23 15:30N 33°55' E 135°00'510.9
2018-Mar-23 15:01N 33°50' E 135°03'159 9.3
2018-Mar-22 21:49N 34°31' E 138°09'4 8.6
2018-Mar-22 21:24N 34°31' E 138°13'4 8.1
2018-Mar-22 20:57N 34°31' E 138°18'6 8.1
2018-Mar-22 20:14N 34°31' E 138°25'3 8.2
2018-Mar-22 19:56N 34°31' E 138°28'4 8.3
2018-Mar-22 19:27N 34°32' E 138°32'4 8.1
2018-Mar-22 18:55N 34°32' E 138°38'9 8.0
2018-Mar-22 17:44N 34°33' E 138°49'2 7.6
2018-Mar-22 17:30N 34°33' E 138°51'3 7.1
2018-Mar-22 17:00N 34°33' E 138°56'4 6.5
2018-Mar-22 16:27N 34°34' E 138°60'4 7.9
2018-Mar-22 15:55N 34°37' E 139°03'4 7.9
2018-Mar-22 15:28N 34°40' E 139°06'7 8.2
2018-Mar-22 14:39N 34°45' E 139°12'2 8.3
2018-Mar-22 14:25N 34°46' E 139°13'8 8.9
2018-Mar-22 13:28N 34°52' E 139°21'5 8.6
2018-Mar-22 12:50N 34°56' E 139°26'3 8.2
2018-Mar-22 12:30N 34°57' E 139°28'4 8.7
2018-Mar-22 12:00N 35°00' E 139°32'4 9.0
2018-Mar-22 11:30N 35°03' E 139°37'5 9.5
2018-Mar-22 10:59N 35°06' E 139°41'510.0
2018-Mar-22 10:30N 35°10' E 139°45'510.1
2018-Mar-22 10:00N 35°15' E 139°46'510.7
2018-Mar-22 09:30N 35°19' E 139°43'510.2
2018-Mar-22 09:00N 35°24' E 139°43'511.0
2018-Mar-22 08:30N 35°28' E 139°48'611.2
2018-Mar-22 08:01N 35°31' E 139°54'611.2
2018-Mar-22 07:30N 35°32' E 140°01'2 4.3
2018-Mar-22 07:00N 35°32' E 140°03'0 0.0
2018-Mar-22 01:39N 35°32' E 140°03'0 0.4
2018-Mar-22 01:30N 35°32' E 140°03'1 2.3
2018-Mar-22 00:59N 35°33' E 140°02'0 0.0
2018-Mar-22 00:26N 35°33' E 140°02'0 0.0
2018-Mar-21 23:59N 35°33' E 140°02'0 0.0
2018-Mar-21 23:26N 35°33' E 140°02'0 0.0
2018-Mar-21 22:56N 35°33' E 140°02'0 0.0
2018-Mar-21 22:11N 35°33' E 140°02'0 0.0
2018-Mar-21 21:56N 35°33' E 140°02'0 0.0
2018-Mar-21 21:26N 35°33' E 140°02'0 0.0
2018-Mar-21 20:59N 35°33' E 140°02'0 0.0
2018-Mar-21 20:26N 35°33' E 140°02'0 0.0
2018-Mar-21 19:59N 35°33' E 140°02'0 0.0
2018-Mar-21 19:26N 35°33' E 140°02'0 0.0
2018-Mar-21 18:59N 35°33' E 140°02'0 0.1
2018-Mar-21 18:29N 35°33' E 140°02'0 0.0
2018-Mar-21 17:56N 35°33' E 140°02'0 0.0
2018-Mar-21 17:26N 35°33' E 140°02'0 0.0
2018-Mar-21 16:56N 35°33' E 140°02'0 0.0
2018-Mar-21 16:26N 35°33' E 140°02'0 0.0
2018-Mar-21 15:56N 35°33' E 140°02'0 0.0
2018-Mar-21 15:26N 35°33' E 140°02'  

Dump ship's entire track history